createdAt,value
2024-02-29T00:00:19.183Z,56.27
2024-02-29T00:03:10.279Z,56.57
2024-02-29T00:05:38.507Z,58.04
2024-02-29T00:08:07.411Z,59.15
2024-02-29T00:10:35.355Z,60.20
2024-02-29T00:13:03.399Z,60.85
2024-02-29T00:15:31.575Z,61.52
2024-02-29T00:17:59.514Z,65.09
2024-02-29T00:20:27.480Z,66.95
2024-02-29T00:22:55.450Z,63.51
2024-02-29T00:25:23.391Z,61.04
2024-02-29T00:27:51.311Z,57.52
2024-02-29T00:30:19.716Z,56.59
2024-02-29T00:32:48.220Z,57.30
2024-02-29T00:35:16.258Z,58.60
2024-02-29T00:37:44.282Z,59.31
2024-02-29T00:40:12.752Z,60.00
2024-02-29T00:42:40.819Z,60.56
2024-02-29T00:45:09.375Z,60.97
2024-02-29T00:47:37.342Z,64.31
2024-02-29T00:50:05.997Z,66.18
2024-02-29T00:52:33.937Z,61.13
2024-02-29T00:55:03.624Z,56.66
2024-02-29T00:57:31.722Z,55.23
2024-02-29T00:59:59.704Z,56.06
2024-02-29T01:02:27.721Z,57.53
2024-02-29T01:04:55.681Z,58.32
2024-02-29T01:07:24.137Z,59.23
2024-02-29T01:09:52.335Z,60.40
2024-02-29T01:12:20.389Z,61.01
2024-02-29T01:14:48.273Z,64.95
2024-02-29T01:17:16.194Z,67.23
2024-02-29T01:19:46.969Z,62.42
2024-02-29T01:22:17.923Z,56.33
2024-02-29T01:24:46.203Z,54.57
2024-02-29T01:27:14.285Z,55.67
2024-02-29T01:29:42.242Z,57.31
2024-02-29T01:32:19.030Z,57.98
2024-02-29T01:34:53.845Z,59.01
2024-02-29T01:37:21.773Z,60.34
2024-02-29T01:39:49.812Z,61.00
2024-02-29T01:42:17.978Z,64.66
2024-02-29T01:44:57.064Z,66.54
2024-02-29T01:47:26.063Z,61.48
2024-02-29T01:49:59.205Z,55.73
2024-02-29T01:52:28.109Z,54.46
2024-02-29T01:54:56.089Z,55.68
2024-02-29T01:57:25.216Z,57.16
2024-02-29T01:59:53.560Z,57.90
2024-02-29T02:02:21.492Z,59.27
2024-02-29T02:04:49.484Z,59.58
2024-02-29T02:07:17.377Z,60.49
2024-02-29T02:09:47.247Z,61.25
2024-02-29T02:12:15.411Z,65.66
2024-02-29T02:14:44.802Z,66.80
2024-02-29T02:17:12.949Z,61.55
2024-02-29T02:19:41.755Z,55.94
2024-02-29T02:22:10.919Z,54.58
2024-02-29T02:24:39.079Z,56.12
2024-02-29T02:27:07.284Z,57.55
2024-02-29T02:29:35.244Z,58.06
2024-02-29T02:32:06.003Z,59.26
2024-02-29T02:34:34.617Z,60.60
2024-02-29T02:37:02.600Z,61.22
2024-02-29T02:39:30.679Z,65.11
2024-02-29T02:41:58.639Z,65.49
2024-02-29T02:44:26.515Z,60.87
2024-02-29T02:46:54.427Z,55.77
2024-02-29T02:49:22.379Z,54.93
2024-02-29T02:51:50.308Z,56.43
2024-02-29T02:54:18.360Z,57.99
2024-02-29T02:56:46.313Z,59.12
2024-02-29T02:59:14.233Z,59.44
2024-02-29T03:01:42.329Z,60.46
2024-02-29T03:04:10.307Z,60.71
2024-02-29T03:06:38.542Z,61.27
2024-02-29T03:09:09.088Z,64.09
2024-02-29T03:11:37.137Z,66.33
2024-02-29T03:14:05.685Z,62.31
2024-02-29T03:16:35.737Z,57.92
2024-02-29T03:19:06.132Z,57.13
2024-02-29T03:21:34.265Z,58.34
2024-02-29T03:24:02.373Z,59.64
2024-02-29T03:26:30.347Z,60.91
2024-02-29T03:28:58.335Z,61.60
2024-02-29T03:31:26.405Z,64.07
2024-02-29T03:33:54.719Z,64.56
2024-02-29T03:36:22.858Z,63.83
2024-02-29T03:38:50.984Z,63.66
2024-02-29T03:41:19.550Z,63.46
2024-02-29T03:43:47.490Z,63.36
2024-02-29T03:46:15.500Z,63.22
2024-02-29T03:48:43.719Z,63.45
2024-02-29T03:51:11.850Z,63.39
2024-02-29T03:53:39.814Z,63.57
2024-02-29T03:56:07.972Z,63.90
2024-02-29T03:58:36.011Z,64.15
2024-02-29T04:01:06.821Z,64.17
2024-02-29T04:03:35.009Z,64.08
2024-02-29T04:06:03.050Z,64.05
2024-02-29T04:08:31.223Z,64.17
2024-02-29T04:10:59.590Z,64.04
2024-02-29T04:13:27.502Z,64.35
2024-02-29T04:15:55.582Z,64.24
2024-02-29T04:18:23.628Z,64.25
2024-02-29T04:20:51.830Z,64.24
2024-02-29T04:23:19.803Z,64.30
2024-02-29T04:25:47.750Z,64.22
2024-02-29T04:28:15.993Z,64.48
2024-02-29T04:30:44.499Z,64.69
2024-02-29T04:33:13.153Z,64.77
2024-02-29T04:35:41.407Z,64.81
2024-02-29T04:38:09.435Z,65.11
2024-02-29T04:40:37.434Z,65.04
2024-02-29T04:43:05.560Z,65.04
2024-02-29T04:45:34.347Z,65.27
2024-02-29T04:48:02.481Z,65.05
2024-02-29T04:50:30.578Z,65.45
2024-02-29T04:52:58.448Z,65.50
2024-02-29T04:55:26.683Z,65.41
2024-02-29T04:57:54.640Z,65.66
2024-02-29T05:00:22.805Z,65.67
2024-02-29T05:02:50.702Z,66.00
2024-02-29T05:05:18.619Z,65.80
2024-02-29T05:07:47.326Z,65.75
2024-02-29T05:10:15.448Z,65.79
2024-02-29T05:12:43.514Z,66.08
2024-02-29T05:15:11.532Z,66.27
2024-02-29T05:17:39.602Z,66.43
2024-02-29T05:20:08.521Z,66.44
2024-02-29T05:22:39.616Z,66.65
2024-02-29T05:25:11.052Z,66.69
2024-02-29T05:27:39.325Z,66.93
2024-02-29T05:30:07.774Z,66.95
2024-02-29T05:32:35.860Z,66.89
2024-02-29T05:35:05.134Z,67.20
2024-02-29T05:37:33.389Z,67.38
2024-02-29T05:40:01.482Z,67.71
2024-02-29T05:42:29.667Z,67.96
2024-02-29T05:44:57.942Z,68.38
2024-02-29T05:47:26.007Z,68.56
2024-02-29T05:49:53.960Z,68.63
2024-02-29T05:52:21.970Z,68.94
2024-02-29T05:54:50.664Z,69.44
2024-02-29T05:57:18.816Z,69.53
2024-02-29T05:59:47.218Z,69.53
2024-02-29T06:02:15.152Z,70.00
2024-02-29T06:04:43.343Z,70.23
2024-02-29T06:07:11.328Z,70.44
2024-02-29T06:09:41.286Z,70.60
2024-02-29T06:12:09.914Z,70.45
2024-02-29T06:14:37.843Z,70.20
2024-02-29T06:17:05.723Z,70.00
2024-02-29T06:19:39.591Z,69.77
2024-02-29T06:22:08.419Z,69.56
2024-02-29T06:24:37.297Z,69.79
2024-02-29T06:27:05.643Z,69.95
2024-02-29T06:29:33.631Z,70.00
2024-02-29T06:32:01.909Z,70.17
2024-02-29T06:34:29.953Z,70.39
2024-02-29T06:36:59.155Z,70.56
2024-02-29T06:39:27.347Z,70.67
2024-02-29T06:41:55.332Z,70.53
2024-02-29T06:44:23.344Z,70.76
2024-02-29T06:46:51.401Z,71.03
2024-02-29T06:49:24.209Z,70.96
2024-02-29T06:51:52.415Z,72.15
2024-02-29T06:54:20.368Z,71.87
2024-02-29T06:56:48.288Z,71.91
2024-02-29T06:59:16.667Z,72.46
2024-02-29T07:01:44.683Z,71.98
2024-02-29T07:04:12.755Z,71.85
2024-02-29T07:06:40.772Z,71.81
2024-02-29T07:09:08.954Z,72.10
2024-02-29T07:11:36.859Z,71.34
2024-02-29T07:14:04.857Z,71.15
2024-02-29T07:16:34.104Z,71.73
2024-02-29T07:19:02.112Z,71.70
2024-02-29T07:21:30.263Z,71.11
2024-02-29T07:23:58.224Z,70.87
2024-02-29T07:26:27.354Z,71.10
2024-02-29T07:28:55.381Z,71.34
2024-02-29T07:31:23.497Z,71.40
2024-02-29T07:33:51.692Z,71.66
2024-02-29T07:36:19.646Z,71.76
2024-02-29T07:38:48.028Z,71.51
2024-02-29T07:41:16.183Z,73.66
2024-02-29T07:43:44.314Z,72.04
2024-02-29T07:46:12.385Z,67.35
2024-02-29T07:48:40.431Z,64.74
2024-02-29T07:51:08.415Z,63.01
2024-02-29T07:53:36.376Z,61.48
2024-02-29T07:56:05.885Z,59.76
2024-02-29T07:58:33.843Z,57.23
2024-02-29T08:01:01.940Z,57.27
2024-02-29T08:03:30.025Z,58.88
2024-02-29T08:05:58.196Z,60.56
2024-02-29T08:08:26.157Z,62.32
2024-02-29T08:10:54.081Z,66.53
2024-02-29T08:13:22.182Z,66.38
2024-02-29T08:15:50.312Z,62.34
2024-02-29T08:18:19.183Z,59.62
2024-02-29T08:20:47.195Z,57.36
2024-02-29T08:23:16.928Z,58.37
2024-02-29T08:25:44.970Z,60.28
2024-02-29T08:28:13.136Z,64.61
2024-02-29T08:30:41.431Z,64.98
2024-02-29T08:33:09.500Z,61.56
2024-02-29T08:35:37.472Z,58.54
2024-02-29T08:38:05.779Z,58.24
2024-02-29T08:40:33.997Z,59.91
2024-02-29T08:43:02.152Z,61.91
2024-02-29T08:45:30.140Z,65.94
2024-02-29T08:47:58.184Z,65.05
2024-02-29T08:50:26.185Z,61.56
2024-02-29T08:52:54.101Z,60.01
2024-02-29T08:55:22.204Z,58.44
2024-02-29T08:57:50.387Z,59.20
2024-02-29T09:00:18.804Z,60.91
2024-02-29T09:02:46.742Z,63.17
2024-02-29T09:05:16.527Z,64.63
2024-02-29T09:07:44.545Z,65.03
2024-02-29T09:10:13.927Z,65.39
2024-02-29T09:12:42.380Z,65.57
2024-02-29T09:15:10.854Z,66.31
2024-02-29T09:17:38.817Z,67.00
2024-02-29T09:20:07.763Z,67.55
2024-02-29T09:22:35.670Z,67.65
2024-02-29T09:25:05.186Z,67.57
2024-02-29T09:27:33.460Z,68.07
2024-02-29T09:30:01.504Z,68.56
2024-02-29T09:32:29.955Z,68.24
2024-02-29T09:34:58.043Z,68.66
2024-02-29T09:37:26.172Z,68.55
2024-02-29T09:39:54.202Z,68.48
2024-02-29T09:42:22.357Z,68.71
2024-02-29T09:44:51.547Z,68.36
2024-02-29T09:47:20.803Z,68.86
2024-02-29T09:49:51.169Z,69.19
2024-02-29T09:52:22.614Z,69.00
2024-02-29T09:54:50.639Z,69.10
2024-02-29T09:57:19.060Z,68.67
2024-02-29T09:59:47.172Z,68.98
2024-02-29T10:02:18.960Z,68.77
2024-02-29T10:04:48.027Z,69.11
2024-02-29T10:07:16.188Z,70.43
2024-02-29T10:09:45.576Z,70.49
2024-02-29T10:12:18.643Z,67.73
2024-02-29T10:14:49.802Z,66.91
2024-02-29T10:17:17.649Z,66.92
2024-02-29T10:19:51.799Z,66.82
2024-02-29T10:22:23.238Z,66.69
2024-02-29T10:24:55.930Z,66.81
2024-02-29T10:27:24.067Z,67.08
2024-02-29T10:29:51.938Z,66.89
2024-02-29T10:32:19.850Z,66.88
2024-02-29T10:34:48.603Z,67.03
2024-02-29T10:37:17.177Z,67.66
2024-02-29T10:39:45.105Z,67.91
2024-02-29T10:42:13.282Z,67.62
2024-02-29T10:44:44.148Z,67.85
2024-02-29T10:47:13.306Z,68.16
2024-02-29T10:49:52.582Z,68.38
2024-02-29T10:52:24.403Z,68.72
2024-02-29T10:55:09.563Z,68.55
2024-02-29T10:57:58.267Z,68.75
2024-02-29T11:00:26.185Z,68.84
2024-02-29T11:02:55.133Z,69.17
2024-02-29T11:05:25.094Z,69.89
2024-02-29T11:07:54.044Z,70.39
2024-02-29T11:10:22.008Z,71.25
2024-02-29T11:12:57.247Z,70.99
2024-02-29T11:15:27.465Z,70.62
2024-02-29T11:17:55.656Z,70.46
2024-02-29T11:20:24.404Z,70.64
2024-02-29T11:23:10.575Z,69.48
2024-02-29T11:25:54.968Z,69.06
2024-02-29T11:29:17.940Z,69.02
2024-02-29T11:31:53.780Z,69.18
2024-02-29T11:34:22.616Z,69.27
2024-02-29T11:36:51.536Z,69.27
2024-02-29T11:39:23.795Z,69.35
2024-02-29T11:42:01.843Z,69.43
2024-02-29T11:44:34.526Z,69.68
2024-02-29T11:47:03.374Z,69.74
2024-02-29T11:49:31.307Z,70.02
2024-02-29T11:51:59.556Z,70.00
2024-02-29T11:54:27.522Z,69.97
2024-02-29T11:56:55.784Z,69.89
2024-02-29T11:59:27.369Z,69.46
2024-02-29T12:01:55.314Z,69.43
2024-02-29T12:04:23.451Z,69.50
2024-02-29T12:06:51.614Z,69.83
2024-02-29T12:09:19.506Z,69.52
2024-02-29T12:11:47.639Z,69.63
2024-02-29T12:14:15.833Z,70.03
2024-02-29T12:16:44.797Z,70.79
2024-02-29T12:19:16.728Z,70.12
2024-02-29T12:21:45.306Z,69.85
2024-02-29T12:24:13.330Z,69.98
2024-02-29T12:26:42.542Z,69.80
2024-02-29T12:29:10.691Z,69.62
2024-02-29T12:31:41.733Z,69.96
2024-02-29T12:34:09.559Z,69.85
2024-02-29T12:36:37.474Z,69.88
2024-02-29T12:39:05.926Z,69.73
2024-02-29T12:41:33.829Z,69.81
2024-02-29T12:44:02.710Z,69.68
2024-02-29T12:46:30.738Z,69.84
2024-02-29T12:48:58.620Z,69.71
2024-02-29T12:51:27.808Z,69.98
2024-02-29T12:53:55.743Z,70.05
2024-02-29T12:56:23.606Z,70.23
2024-02-29T12:58:51.480Z,70.07
2024-02-29T13:01:19.450Z,70.18
2024-02-29T13:03:47.841Z,70.41
2024-02-29T13:06:15.775Z,70.48
2024-02-29T13:08:45.086Z,70.58
2024-02-29T13:11:13.118Z,70.59
2024-02-29T13:13:41.389Z,70.80
2024-02-29T13:16:09.566Z,70.67
2024-02-29T13:18:37.389Z,70.77
2024-02-29T13:21:06.351Z,70.60
2024-02-29T13:23:34.459Z,70.55
2024-02-29T13:26:02.750Z,70.69
2024-02-29T13:28:31.018Z,70.87
2024-02-29T13:30:59.023Z,71.07
2024-02-29T13:33:27.835Z,70.98
2024-02-29T13:35:55.818Z,71.07
2024-02-29T13:38:23.717Z,71.31
2024-02-29T13:40:51.607Z,71.28
2024-02-29T13:43:19.585Z,71.49
2024-02-29T13:45:47.651Z,71.71
2024-02-29T13:48:15.577Z,71.76
2024-02-29T13:50:43.684Z,71.90
2024-02-29T13:53:12.007Z,71.95
2024-02-29T13:55:39.916Z,72.17
2024-02-29T13:58:07.936Z,72.07
2024-02-29T14:00:35.898Z,72.05
2024-02-29T14:03:03.947Z,71.92
2024-02-29T14:05:31.891Z,71.96
2024-02-29T14:08:00.037Z,71.74
2024-02-29T14:10:28.002Z,71.75
2024-02-29T14:12:56.646Z,71.92
2024-02-29T14:15:24.745Z,71.78
2024-02-29T14:17:52.840Z,71.70
2024-02-29T14:20:20.692Z,71.66
2024-02-29T14:22:48.818Z,71.51
2024-02-29T14:25:18.508Z,71.60
2024-02-29T14:27:47.057Z,71.80
2024-02-29T14:30:15.536Z,71.90
2024-02-29T14:32:43.760Z,71.77
2024-02-29T14:35:11.796Z,71.69
2024-02-29T14:37:39.694Z,71.79
2024-02-29T14:40:12.136Z,71.73
2024-02-29T14:42:40.637Z,71.88
2024-02-29T14:45:09.592Z,72.13
2024-02-29T14:47:37.795Z,72.30
2024-02-29T14:50:06.492Z,72.28
2024-02-29T14:52:36.328Z,72.08
2024-02-29T14:55:07.656Z,71.97
2024-02-29T14:57:35.560Z,71.93
2024-02-29T15:00:12.762Z,72.05
2024-02-29T15:02:43.138Z,72.00
2024-02-29T15:05:11.073Z,71.97
2024-02-29T15:07:40.249Z,71.91
2024-02-29T15:10:08.968Z,71.99
2024-02-29T15:12:36.808Z,72.08
2024-02-29T15:15:05.518Z,72.13
2024-02-29T15:17:34.389Z,72.04
2024-02-29T15:20:06.058Z,71.94
2024-02-29T15:22:33.934Z,71.93
2024-02-29T15:25:01.877Z,72.02
2024-02-29T15:27:38.893Z,72.11
2024-02-29T15:30:08.276Z,72.28
2024-02-29T15:32:36.490Z,72.35
2024-02-29T15:35:06.139Z,72.62
2024-02-29T15:37:33.973Z,72.54
2024-02-29T15:40:02.302Z,72.45
2024-02-29T15:42:30.438Z,72.54
2024-02-29T15:44:58.284Z,72.70
2024-02-29T15:47:26.375Z,72.95
2024-02-29T15:49:57.557Z,73.00
2024-02-29T15:52:25.471Z,73.03
2024-02-29T15:54:53.364Z,73.19
2024-02-29T15:57:21.418Z,73.00
2024-02-29T15:59:49.324Z,72.96
2024-02-29T16:02:17.181Z,73.14
2024-02-29T16:04:45.138Z,73.30
2024-02-29T16:07:13.070Z,73.41
2024-02-29T16:09:44.036Z,73.45
2024-02-29T16:12:12.425Z,73.30
2024-02-29T16:14:41.640Z,73.53
2024-02-29T16:17:09.678Z,73.65
2024-02-29T16:19:37.499Z,73.51
2024-02-29T16:22:05.432Z,73.52
2024-02-29T16:24:33.460Z,73.70
2024-02-29T16:27:01.384Z,73.79
2024-02-29T16:29:29.788Z,73.84
2024-02-29T16:31:57.659Z,74.07
2024-02-29T16:34:25.576Z,74.11
2024-02-29T16:36:53.748Z,74.13
2024-02-29T16:39:21.696Z,74.27
2024-02-29T16:41:50.308Z,74.49
2024-02-29T16:44:18.239Z,74.41
2024-02-29T16:46:46.526Z,74.51
2024-02-29T16:49:15.137Z,74.71
2024-02-29T16:51:43.025Z,74.99
2024-02-29T16:54:10.906Z,75.01
2024-02-29T16:56:38.935Z,74.80
2024-02-29T16:59:07.145Z,74.92
2024-02-29T17:01:35.282Z,74.78
2024-02-29T17:04:03.256Z,74.92
2024-02-29T17:06:32.508Z,75.00
2024-02-29T17:09:00.464Z,75.01
2024-02-29T17:11:28.519Z,75.09
2024-02-29T17:13:57.424Z,75.19
2024-02-29T17:16:25.448Z,75.15
2024-02-29T17:18:54.671Z,75.15
2024-02-29T17:21:26.314Z,75.10
2024-02-29T17:23:54.408Z,75.10
2024-02-29T17:26:22.285Z,75.07
2024-02-29T17:28:52.594Z,75.01
2024-02-29T17:31:27.894Z,75.05
2024-02-29T17:33:57.258Z,75.06
2024-02-29T17:36:25.447Z,74.99
2024-02-29T17:38:53.475Z,74.89
2024-02-29T17:41:21.745Z,74.95
2024-02-29T17:43:50.032Z,75.01
2024-02-29T17:46:17.920Z,74.98
2024-02-29T17:48:46.316Z,74.70
2024-02-29T17:51:14.385Z,74.67
2024-02-29T17:53:43.221Z,74.69
2024-02-29T17:56:13.704Z,74.75
2024-02-29T17:58:41.610Z,74.72
2024-02-29T18:01:09.580Z,74.73
2024-02-29T18:03:37.541Z,74.79
2024-02-29T18:06:05.853Z,74.76
2024-02-29T18:08:33.753Z,75.44
2024-02-29T18:11:01.616Z,75.86
2024-02-29T18:13:29.572Z,75.27
2024-02-29T18:15:57.539Z,75.47
2024-02-29T18:18:25.628Z,74.99
2024-02-29T18:20:53.576Z,74.49
2024-02-29T18:23:21.427Z,74.15
2024-02-29T18:25:49.946Z,74.17
2024-02-29T18:28:18.029Z,73.67
2024-02-29T18:30:46.148Z,73.52
2024-02-29T18:33:14.123Z,73.44
2024-02-29T18:35:42.534Z,73.50
2024-02-29T18:38:10.444Z,73.76
2024-02-29T18:40:38.939Z,73.95
2024-02-29T18:43:06.865Z,74.03
2024-02-29T18:45:34.773Z,74.10
2024-02-29T18:48:02.693Z,74.56
2024-02-29T18:50:30.528Z,75.14
2024-02-29T18:52:58.353Z,74.68
2024-02-29T18:55:26.267Z,74.45
2024-02-29T18:57:54.281Z,74.10
2024-02-29T19:00:22.463Z,73.93
2024-02-29T19:02:51.814Z,73.74
2024-02-29T19:05:20.048Z,73.71
2024-02-29T19:07:47.931Z,73.66
2024-02-29T19:10:15.805Z,73.30
2024-02-29T19:12:44.097Z,73.18
2024-02-29T19:15:12.111Z,73.22
2024-02-29T19:17:40.073Z,73.07
2024-02-29T19:20:12.042Z,72.96
2024-02-29T19:22:40.268Z,72.83
2024-02-29T19:25:08.808Z,72.62
2024-02-29T19:27:36.672Z,72.47
2024-02-29T19:30:06.910Z,72.49
2024-02-29T19:32:34.914Z,72.07
2024-02-29T19:35:03.970Z,71.77
2024-02-29T19:37:31.986Z,71.51
2024-02-29T19:40:00.414Z,71.59
2024-02-29T19:42:28.451Z,72.00
2024-02-29T19:44:59.301Z,72.67
2024-02-29T19:47:27.288Z,73.01
2024-02-29T19:49:55.143Z,73.08
2024-02-29T19:52:23.142Z,73.30
2024-02-29T19:54:52.947Z,73.27
2024-02-29T19:57:20.985Z,73.46
2024-02-29T19:59:48.937Z,73.86
2024-02-29T20:02:17.792Z,74.74
2024-02-29T20:04:45.724Z,75.37
2024-02-29T20:07:13.871Z,75.97
2024-02-29T20:09:41.809Z,76.03
2024-02-29T20:12:09.728Z,76.62
2024-02-29T20:14:37.545Z,76.68
2024-02-29T20:17:05.373Z,76.72
2024-02-29T20:19:35.309Z,76.70
2024-02-29T20:22:04.577Z,77.54
2024-02-29T20:24:32.692Z,78.65
2024-02-29T20:27:00.544Z,80.28
2024-02-29T20:29:28.489Z,78.18
2024-02-29T20:31:56.489Z,76.15
2024-02-29T20:34:24.576Z,75.25
2024-02-29T20:36:55.628Z,75.94
2024-02-29T20:39:23.481Z,77.16
2024-02-29T20:41:51.368Z,74.61
2024-02-29T20:44:19.385Z,72.45
2024-02-29T20:46:47.443Z,69.79
2024-02-29T20:49:17.203Z,66.52
2024-02-29T20:51:45.724Z,64.96
2024-02-29T20:54:13.711Z,62.99
2024-02-29T20:56:41.896Z,61.75
2024-02-29T20:59:10.135Z,61.82
2024-02-29T21:01:38.034Z,60.66
2024-02-29T21:04:06.035Z,58.34
2024-02-29T21:06:34.029Z,59.12
2024-02-29T21:09:01.898Z,61.75
2024-02-29T21:11:29.829Z,66.12
2024-02-29T21:13:57.900Z,66.04
2024-02-29T21:16:25.963Z,64.29
2024-02-29T21:18:54.113Z,62.40
2024-02-29T21:21:21.981Z,61.56
2024-02-29T21:23:50.400Z,61.02
2024-02-29T21:26:19.139Z,60.81
2024-02-29T21:28:48.574Z,60.43
2024-02-29T21:31:17.161Z,60.18
2024-02-29T21:33:45.283Z,59.86
2024-02-29T21:36:13.152Z,59.99
2024-02-29T21:38:44.556Z,60.51
2024-02-29T21:41:12.456Z,60.91
2024-02-29T21:43:40.572Z,61.71
2024-02-29T21:46:09.196Z,61.48
2024-02-29T21:48:37.066Z,60.83
2024-02-29T21:51:05.127Z,60.47
2024-02-29T21:53:32.952Z,60.75
2024-02-29T21:56:00.878Z,60.35
2024-02-29T21:58:30.885Z,60.40
2024-02-29T22:00:58.858Z,60.06
2024-02-29T22:03:26.791Z,58.76
2024-02-29T22:05:54.748Z,59.00
2024-02-29T22:08:22.919Z,60.93
2024-02-29T22:10:50.994Z,65.12
2024-02-29T22:13:19.090Z,65.30
2024-02-29T22:15:47.057Z,65.98
2024-02-29T22:18:15.699Z,64.82
2024-02-29T22:20:47.223Z,62.92
2024-02-29T22:23:15.378Z,61.85
2024-02-29T22:25:43.924Z,61.64
2024-02-29T22:28:11.944Z,59.98
2024-02-29T22:30:39.818Z,57.73
2024-02-29T22:33:07.813Z,58.55
2024-02-29T22:35:35.826Z,60.77
2024-02-29T22:38:03.930Z,64.65
2024-02-29T22:40:31.912Z,65.78
2024-02-29T22:42:59.921Z,65.19
2024-02-29T22:45:27.801Z,62.49
2024-02-29T22:47:55.733Z,61.18
2024-02-29T22:50:23.753Z,60.65
2024-02-29T22:52:52.126Z,58.55
2024-02-29T22:55:20.015Z,58.53
2024-02-29T22:57:48.343Z,60.63
2024-02-29T23:00:27.077Z,64.55
2024-02-29T23:02:54.937Z,66.54
2024-02-29T23:05:23.334Z,65.67
2024-02-29T23:07:53.399Z,62.76
2024-02-29T23:10:21.513Z,61.29
2024-02-29T23:12:50.353Z,60.86
2024-02-29T23:15:18.970Z,59.85
2024-02-29T23:17:49.483Z,58.30
2024-02-29T23:20:18.358Z,59.34
2024-02-29T23:22:46.513Z,61.28
2024-02-29T23:25:15.034Z,64.85
2024-02-29T23:27:42.976Z,65.83
2024-02-29T23:30:15.062Z,63.24
2024-02-29T23:32:42.872Z,61.60
2024-02-29T23:35:10.818Z,60.46
2024-02-29T23:37:38.655Z,60.08
2024-02-29T23:40:10.688Z,59.91
2024-02-29T23:42:38.624Z,58.55
2024-02-29T23:45:07.170Z,58.83
2024-02-29T23:47:34.970Z,60.26
2024-02-29T23:50:03.846Z,64.21
2024-02-29T23:52:31.861Z,65.70
2024-02-29T23:55:00.709Z,64.21
2024-02-29T23:57:28.642Z,63.67
2024-02-29T23:59:56.597Z,61.57
